Time;durP1;ratioP1;P1;durP2;ratioP2;P2;SDS_P1;SDS_P2;PMS_P1;PMS_P2;Temp;Humidity;BMP_temperature;BMP_pressure;BME280_temperature;BME280_humidity;BME280_pressure;Samples;Min_cycle;Max_cycle;Signal;HPM_P1;HPM_P2
2021/09/10 00:04:12;;;;;;;8.70;6.65;;;;;;;22.76;58.80;99878.13;10213735;28;20074;-62
2021/09/10 00:09:13;;;;;;;7.20;6.50;;;;;;;22.77;59.15;99877.06;10216460;28;20079;-63
2021/09/10 00:14:15;;;;;;;8.93;8.02;;;;;;;22.68;59.40;99881.06;10214309;28;20086;-62
2021/09/10 00:19:16;;;;;;;8.88;6.68;;;;;;;22.66;59.69;99883.16;10211288;28;20078;-63
2021/09/10 00:24:17;;;;;;;8.10;7.40;;;;;;;22.57;59.74;99880.66;10224754;28;20083;-62
2021/09/10 00:29:19;;;;;;;9.25;8.30;;;;;;;22.59;59.77;99878.56;10215545;28;20076;-63
2021/09/10 00:34:20;;;;;;;9.85;7.53;;;;;;;22.62;60.12;99887.31;10233282;28;20079;-62
2021/09/10 00:39:22;;;;;;;7.85;7.15;;;;;;;22.63;59.59;99883.56;10225506;28;20550;-62
2021/09/10 00:44:24;;;;;;;8.00;7.30;;;;;;;22.54;60.02;99881.06;10220242;28;20149;-62
2021/09/10 00:49:25;;;;;;;10.85;7.38;;;;;;;22.55;59.64;99873.78;10223104;28;20051;-59
2021/09/10 00:54:27;;;;;;;9.80;8.80;;;;;;;22.48;60.22;99881.91;10220421;28;20047;-62
2021/09/10 00:59:28;;;;;;;7.68;6.97;;;;;;;22.46;60.62;99875.88;10216588;28;20051;-62
2021/09/10 01:04:30;;;;;;;8.23;7.53;;;;;;;22.44;60.17;99880.66;10222181;28;20044;-62
2021/09/10 01:09:31;;;;;;;11.50;8.13;;;;;;;22.31;60.61;99881.53;10223197;28;20130;-59
2021/09/10 01:14:33;;;;;;;9.73;8.88;;;;;;;22.27;60.82;99884.84;10214972;28;20513;-59
2021/09/10 01:19:36;;;;;;;9.60;8.60;;;;;;;22.14;61.24;99888.38;10222943;28;20591;-59
2021/09/10 01:25:00;;;;;;;10.20;8.40;;;;;;;22.16;60.84;99884.41;10224580;28;20445;-59
2021/09/10 01:30:02;;;;;;;;;;;;;;;22.04;61.42;99881.50;10219137;28;20051;-60
2021/09/10 01:35:04;;;;;;;8.52;7.63;;;;;;;22.04;61.22;99881.50;10217640;28;19923;-59
2021/09/10 01:40:07;;;;;;;9.18;8.25;;;;;;;21.99;61.40;99880.44;10218634;28;20649;-59
2021/09/10 01:45:10;;;;;;;9.45;8.68;;;;;;;21.89;60.91;99889.00;10230865;28;20130;-62
2021/09/10 01:50:14;;;;;;;8.70;7.95;;;;;;;21.86;61.69;99884.81;10217118;28;20067;-62
2021/09/10 01:55:16;;;;;;;10.13;8.90;;;;;;;21.80;61.68;99888.34;10217893;28;20125;-62
2021/09/10 02:00:19;;;;;;;9.23;8.40;;;;;;;21.77;62.48;99896.03;10236042;28;20094;-62
2021/09/10 02:05:20;;;;;;;8.77;7.90;;;;;;;21.76;62.90;99895.22;10222164;28;20177;-63
2021/09/10 02:10:21;;;;;;;8.65;7.85;;;;;;;21.72;62.93;99891.25;10217062;28;20105;-61
2021/09/10 02:15:23;;;;;;;8.93;8.05;;;;;;;21.77;62.50;99890.63;10231810;28;20047;-61
2021/09/10 02:20:24;;;;;;;9.50;8.65;;;;;;;21.66;62.82;99889.34;10237558;28;20054;-61
2021/09/10 02:25:26;;;;;;;10.68;7.75;;;;;;;21.61;62.66;99886.44;10218588;28;20047;-61
2021/09/10 02:30:27;;;;;;;9.15;8.45;;;;;;;21.50;62.31;99896.81;10216930;28;20071;-63
2021/09/10 02:35:29;;;;;;;10.00;8.60;;;;;;;21.56;62.92;99902.44;10210583;28;20051;-63
2021/09/10 02:40:30;;;;;;;9.00;8.30;;;;;;;21.57;62.71;99899.53;10212480;28;21127;-63
2021/09/10 02:45:32;;;;;;;8.63;7.38;;;;;;;21.48;62.46;99896.19;10215216;28;20051;-64
2021/09/10 02:50:34;;;;;;;8.35;7.50;;;;;;;21.51;62.54;99898.50;10222308;28;20441;-62
2021/09/10 02:55:35;;;;;;;7.78;7.00;;;;;;;21.53;62.53;99901.00;10222427;28;20047;-63
2021/09/10 03:00:37;;;;;;;8.98;7.95;;;;;;;21.55;62.51;99893.50;10216594;28;20082;-63
2021/09/10 03:05:38;;;;;;;9.32;8.52;;;;;;;21.58;62.52;99894.97;10211822;28;20050;-62
2021/09/10 03:10:40;;;;;;;9.25;7.82;;;;;;;21.52;62.64;99900.16;10222171;28;20051;-63
2021/09/10 03:15:41;;;;;;;9.52;8.63;;;;;;;21.46;62.49;99898.22;10222337;28;20070;-69
2021/09/10 03:20:43;;;;;;;8.98;8.13;;;;;;;21.51;62.65;99900.34;10216792;28;20043;-62
2021/09/10 03:25:45;;;;;;;10.68;7.97;;;;;;;21.46;62.68;99897.41;10214978;28;20098;-63
2021/09/10 03:30:46;;;;;;;8.40;7.70;;;;;;;21.44;62.96;99892.19;10224979;28;20106;-63
2021/09/10 03:35:50;;;;;;;8.75;7.95;;;;;;;21.52;62.52;99891.22;10218176;28;20048;-63
2021/09/10 03:40:51;;;;;;;;;;;;;;;21.48;62.50;99892.59;10213717;28;20110;-64
2021/09/10 03:45:53;;;;;;;8.18;7.38;;;;;;;21.56;62.82;99889.75;10221284;28;20363;-62
2021/09/10 03:50:54;;;;;;;8.57;7.78;;;;;;;21.55;62.52;99893.50;10214376;28;20172;-63
2021/09/10 03:55:56;;;;;;;10.60;8.27;;;;;;;21.51;62.85;99886.81;10214752;28;20559;-61
2021/09/10 04:00:57;;;;;;;9.13;8.25;;;;;;;21.50;62.64;99886.00;10211317;28;20130;-62
2021/09/10 04:05:59;;;;;;;8.60;7.80;;;;;;;21.46;63.15;99890.09;10226734;28;20062;-61
2021/09/10 04:11:00;;;;;;;8.45;7.65;;;;;;;21.47;62.98;99901.78;10215390;28;20066;-62
2021/09/10 04:16:02;;;;;;;8.48;7.47;;;;;;;21.43;63.21;99893.22;10218053;28;20311;-63
2021/09/10 04:21:03;;;;;;;9.13;8.30;;;;;;;21.39;63.83;99893.84;10218244;28;20051;-61
2021/09/10 04:26:05;;;;;;;8.48;7.78;;;;;;;21.42;63.27;99896.13;10216432;28;20142;-62
2021/09/10 04:31:06;;;;;;;8.20;7.45;;;;;;;21.33;63.60;99890.06;10214469;28;20269;-62
2021/09/10 04:36:08;;;;;;;7.95;7.15;;;;;;;21.40;63.67;99907.16;10216980;28;20047;-62
2021/09/10 04:41:09;;;;;;;8.30;7.57;;;;;;;21.31;64.12;99898.38;10221478;28;20051;-62
2021/09/10 04:46:11;;;;;;;11.18;8.13;;;;;;;21.36;63.80;99900.47;10217586;28;20126;-62
2021/09/10 04:51:12;;;;;;;8.02;7.32;;;;;;;21.34;63.46;99892.56;10219369;28;20051;-65
2021/09/10 04:56:13;;;;;;;8.82;7.95;;;;;;;21.34;64.01;99889.84;10215185;28;20071;-62
2021/09/10 05:01:15;;;;;;;8.30;7.60;;;;;;;21.35;63.83;99899.66;10220403;28;20089;-61
2021/09/10 05:06:17;;;;;;;8.65;7.85;;;;;;;21.23;64.12;99895.88;10219348;28;20416;-61
2021/09/10 05:11:18;;;;;;;8.18;7.47;;;;;;;21.26;64.06;99905.44;10219808;28;20075;-62
2021/09/10 05:16:20;;;;;;;8.63;7.72;;;;;;;21.30;63.52;99906.72;10217956;28;20119;-62
2021/09/10 05:21:21;;;;;;;8.98;7.90;;;;;;;21.30;63.90;99915.69;10220433;28;20394;-61
2021/09/10 05:26:23;;;;;;;7.93;7.22;;;;;;;21.28;64.40;99915.03;10211975;28;20501;-61
2021/09/10 05:31:26;;;;;;;8.52;7.72;;;;;;;21.29;63.77;99915.88;10211901;28;20075;-61
2021/09/10 05:36:28;;;;;;;9.07;7.72;;;;;;;21.31;63.96;99925.47;10206491;28;20052;-60
2021/09/10 05:41:29;;;;;;;7.88;7.18;;;;;;;21.22;63.57;99932.09;10207899;28;20163;-61
2021/09/10 05:46:30;;;;;;;8.60;7.82;;;;;;;21.12;64.06;99928.91;10209266;28;20063;-62
2021/09/10 05:51:32;;;;;;;8.75;7.80;;;;;;;21.21;64.94;99930.41;10205302;28;20122;-61
2021/09/10 05:56:33;;;;;;;10.40;8.05;;;;;;;21.34;63.63;99938.59;10200122;28;20149;-63
2021/09/10 06:01:35;;;;;;;9.32;7.70;;;;;;;21.44;64.32;99938.22;10200898;28;20055;-62
2021/09/10 06:06:37;;;;;;;8.30;7.60;;;;;;;21.46;63.27;99933.44;10200057;28;20681;-63
2021/09/10 06:11:39;;;;;;;8.57;7.50;;;;;;;21.45;63.66;99936.34;10198475;28;20182;-61
2021/09/10 06:16:40;;;;;;;8.05;7.18;;;;;;;21.42;63.29;99937.56;10213285;28;20078;-62
2021/09/10 06:21:42;;;;;;;10.80;8.60;;;;;;;21.39;63.78;99937.97;10199733;28;20126;-62
2021/09/10 06:26:44;;;;;;;7.82;7.13;;;;;;;21.66;63.20;99943.53;10197634;28;20093;-62
2021/09/10 06:31:47;;;;;;;10.95;7.72;;;;;;;21.75;63.87;99950.41;10195536;28;20398;-61
2021/09/10 06:36:49;;;;;;;8.52;7.72;;;;;;;22.05;63.06;99952.78;10198810;28;20043;-62
2021/09/10 06:41:50;;;;;;;8.93;8.23;;;;;;;22.06;62.23;99939.03;10198897;28;20496;-62
2021/09/10 06:46:52;;;;;;;10.10;8.02;;;;;;;22.04;61.80;99940.28;10197046;28;20047;-61
2021/09/10 06:51:53;;;;;;;8.00;7.30;;;;;;;22.15;62.35;99936.94;10194590;28;20063;-62
2021/09/10 06:56:55;;;;;;;8.93;8.02;;;;;;;22.16;62.09;99935.91;10198883;28;20075;-63
2021/09/10 07:01:56;;;;;;;22.60;8.75;;;;;;;22.28;61.38;99943.41;10198505;28;20143;-61
2021/09/10 07:06:58;;;;;;;10.85;8.18;;;;;;;22.34;61.15;99948.03;10198907;28;20740;-61
2021/09/10 07:12:01;;;;;;;8.80;7.90;;;;;;;22.38;60.57;99952.00;10197365;28;20130;-61
2021/09/10 07:17:03;;;;;;;10.70;7.88;;;;;;;22.65;60.36;99962.84;10196982;28;20404;-62
2021/09/10 07:22:04;;;;;;;8.32;7.38;;;;;;;22.70;60.03;99965.75;10193553;28;20120;-62
2021/09/10 07:27:06;;;;;;;7.72;6.78;;;;;;;23.03;59.09;99970.28;10202241;28;20125;-63
2021/09/10 07:32:08;;;;;;;8.10;6.60;;;;;;;23.16;58.39;99981.16;10204249;28;20291;-62
2021/09/10 07:37:09;;;;;;;7.80;6.25;;;;;;;23.47;57.85;99979.59;10205765;28;20206;-62
2021/09/10 07:42:11;;;;;;;6.82;6.32;;;;;;;23.75;57.00;99978.41;10203922;28;20058;-62
2021/09/10 07:47:12;;;;;;;8.13;7.15;;;;;;;23.49;57.38;99988.38;10206736;28;20754;-63
2021/09/10 07:52:13;;;;;;;6.53;5.90;;;;;;;24.00;56.54;99986.69;10205992;28;20129;-61
2021/09/10 07:57:15;;;;;;;8.35;7.18;;;;;;;24.59;54.58;99995.50;10208175;28;20127;-65
2021/09/10 08:02:16;;;;;;;7.93;6.97;;;;;;;24.60;54.47;100005.31;10200513;28;20129;-61
2021/09/10 08:07:18;;;;;;;7.85;6.43;;;;;;;24.35;54.67;100005.31;10205978;28;20682;-62
2021/09/10 08:12:32;;;;;;;6.30;5.75;;;;;;;24.09;55.31;100011.72;10206104;28;20591;-62
2021/09/10 08:17:33;;;;;;;6.75;6.13;;;;;;;23.90;55.35;99998.03;10204208;28;20555;-62
2021/09/10 08:22:35;;;;;;;5.82;5.25;;;;;;;24.20;54.72;100008.31;10207004;28;22213;-62
2021/09/10 08:27:38;;;;;;;6.65;6.03;;;;;;;24.07;55.08;100002.97;10203957;28;20224;-62
2021/09/10 08:32:40;;;;;;;6.25;5.70;;;;;;;23.81;55.74;100011.00;10206203;28;20047;-62
2021/09/10 08:37:41;;;;;;;7.10;6.32;;;;;;;23.80;55.60;100022.09;10216844;28;20078;-63
2021/09/10 08:42:43;;;;;;;6.45;5.45;;;;;;;24.29;55.55;100012.44;10201259;28;20149;-62
2021/09/10 08:47:44;;;;;;;5.82;5.22;;;;;;;24.93;53.29;100011.53;10204586;28;20232;-62
2021/09/10 08:52:46;;;;;;;6.78;4.78;;;;;;;25.25;52.49;100014.97;10205817;28;20579;-62
2021/09/10 08:57:54;;;;;;;5.35;4.75;;;;;;;25.59;50.54;100015.44;10204824;28;20624;-62
2021/09/10 09:03:08;;;;;;;6.47;5.35;;;;;;;25.62;50.17;100017.72;10205951;28;20138;-62
2021/09/10 09:08:14;;;;;;;5.65;5.25;;;;;;;25.13;51.49;100024.94;10205195;28;20051;-63
2021/09/10 09:13:17;;;;;;;5.80;5.20;;;;;;;25.27;51.58;100023.75;10204254;28;20059;-62
2021/09/10 09:18:38;;;;;;;5.22;4.82;;;;;;;25.56;50.86;100037.72;10202026;28;20137;-63
2021/09/10 09:23:40;;;;;;;7.03;5.18;;;;;;;25.55;51.47;100027.88;10216665;28;20134;-63
2021/09/10 09:28:42;;;;;;;8.50;5.93;;;;;;;25.27;52.24;100022.94;10202149;28;20127;-63
2021/09/10 09:33:47;;;;;;;6.25;5.65;;;;;;;25.25;52.61;100020.41;10202986;28;20063;-63
2021/09/10 09:38:49;;;;;;;7.00;6.30;;;;;;;24.98;53.27;100022.56;10199728;28;20150;-62
2021/09/10 09:44:00;;;;;;;6.63;6.05;;;;;;;25.22;52.99;100026.31;10204444;28;20543;-63
2021/09/10 09:49:11;;;;;;;6.32;5.72;;;;;;;25.47;52.60;100022.72;10201068;28;20055;-63
2021/09/10 09:54:12;;;;;;;6.00;5.40;;;;;;;25.68;51.48;100024.97;10198344;28;20824;-61
2021/09/10 09:59:15;;;;;;;5.93;5.35;;;;;;;25.71;51.69;100019.06;10195213;28;20142;-62
2021/09/10 10:04:18;;;;;;;6.25;5.47;;;;;;;25.32;52.10;100026.66;10194706;28;20051;-67
2021/09/10 10:09:23;;;;;;;6.53;5.30;;;;;;;25.12;52.87;100031.47;10200088;28;20142;-62
2021/09/10 10:14:33;;;;;;;6.82;5.57;;;;;;;24.69;53.86;100030.38;10200060;28;20134;-63
2021/09/10 10:19:38;;;;;;;6.63;5.60;;;;;;;24.67;53.57;100022.44;10198981;28;20138;-62
2021/09/10 10:24:47;;;;;;;6.22;5.72;;;;;;;24.68;54.00;100021.38;10195538;28;20579;-62
2021/09/10 10:29:48;;;;;;;6.78;6.18;;;;;;;24.53;53.84;100018.13;10197686;28;20122;-63
2021/09/10 10:35:27;;;;;;;7.38;5.38;;;;;;;24.70;54.41;100024.72;10197286;28;20185;-63
2021/09/10 10:40:33;;;;;;;5.40;4.68;;;;;;;24.97;53.12;100021.75;10198739;28;20183;-62
2021/09/10 10:45:40;;;;;;;6.18;4.90;;;;;;;24.87;53.44;100018.69;10197436;28;20267;-61
2021/09/10 10:50:42;;;;;;;6.70;6.00;;;;;;;24.77;53.86;100018.38;10200549;28;20059;-63
2021/09/10 10:55:43;;;;;;;5.88;5.22;;;;;;;24.81;53.76;100009.53;10196833;28;20478;-61
2021/09/10 11:00:49;;;;;;;7.82;5.88;;;;;;;25.04;53.00;100002.63;10207388;28;20295;-62
2021/09/10 11:05:53;;;;;;;5.47;4.97;;;;;;;25.34;52.42;100008.22;10204707;28;20202;-59
2021/09/10 11:10:56;;;;;;;5.03;4.30;;;;;;;25.43;50.37;100000.53;10199731;28;20098;-59
2021/09/10 11:15:58;;;;;;;4.18;3.88;;;;;;;25.65;49.22;100006.34;10200138;28;20477;-59
2021/09/10 11:21:07;;;;;;;4.43;3.72;;;;;;;25.65;49.02;100000.91;10199516;28;20087;-59
2021/09/10 11:26:09;;;;;;;5.60;4.20;;;;;;;25.92;48.46;99992.38;10197681;28;20562;-59
2021/09/10 11:31:11;;;;;;;4.77;3.87;;;;;;;26.50;47.86;100003.72;10200171;28;20071;-59
2021/09/10 11:36:24;;;;;;;4.50;4.10;;;;;;;27.89;44.96;99993.16;10214481;28;20102;-60
2021/09/10 11:41:26;;;;;;;4.60;4.00;;;;;;;27.50;44.80;99991.88;10199688;28;20135;-59
2021/09/10 11:46:27;;;;;;;4.10;3.70;;;;;;;28.30;43.56;99982.97;10196522;28;20059;-61
2021/09/10 11:51:44;;;;;;;4.70;3.90;;;;;;;28.45;43.42;99999.66;10197557;28;20717;-60
2021/09/10 11:56:47;;;;;;;4.93;3.85;;;;;;;27.08;45.90;99997.50;10192839;28;20175;-59
2021/09/10 12:01:49;;;;;;;4.07;3.67;;;;;;;26.48;47.81;99990.31;10199460;28;20047;-60
2021/09/10 12:06:53;;;;;;;3.13;2.93;;;;;;;26.33;48.49;99988.03;10201032;28;20147;-60
2021/09/10 12:12:16;;;;;;;3.50;2.60;;;;;;;26.40;48.13;99993.38;10198716;28;20050;-60
2021/09/10 12:17:21;;;;;;;3.00;2.80;;;;;;;26.40;48.92;99990.66;10199648;28;20086;-61
2021/09/10 12:22:35;;;;;;;2.60;2.40;;;;;;;26.25;48.73;99988.38;10199935;28;20073;-59
2021/09/10 12:27:36;;;;;;;2.78;1.90;;;;;;;28.08;44.48;99980.94;10198361;28;20051;-60
2021/09/10 12:32:38;;;;;;;4.40;2.20;;;;;;;28.19;43.79;99976.50;10200378;28;20047;-60
2021/09/10 12:37:39;;;;;;;2.38;2.20;;;;;;;28.17;44.51;99979.47;10201314;28;20051;-60
2021/09/10 12:42:41;;;;;;;2.77;2.40;;;;;;;28.19;45.16;99980.06;10212941;28;20098;-59
2021/09/10 12:47:43;;;;;;;2.50;2.30;;;;;;;28.48;43.94;99969.06;10199299;28;20186;-60
2021/09/10 12:52:44;;;;;;;3.60;2.85;;;;;;;28.69;43.38;99963.91;10196462;28;20098;-60
2021/09/10 12:57:46;;;;;;;3.10;1.93;;;;;;;29.90;41.04;99956.72;10194022;28;20138;-60
2021/09/10 13:02:47;;;;;;;2.40;2.20;;;;;;;30.27;40.19;99944.97;10198567;28;20055;-61
2021/09/10 13:07:49;;;;;;;1.90;1.65;;;;;;;30.15;40.45;99952.56;10199123;28;20294;-60
2021/09/10 13:12:51;;;;;;;3.75;1.75;;;;;;;29.84;41.09;99944.03;10195619;28;20061;-60
2021/09/10 13:17:52;;;;;;;2.15;1.95;;;;;;;29.21;41.40;99952.63;10193985;28;20133;-63
2021/09/10 13:22:54;;;;;;;2.50;2.30;;;;;;;28.81;42.62;99941.91;10194764;28;21719;-60
2021/09/10 13:27:56;;;;;;;2.47;2.00;;;;;;;28.16;43.88;99942.22;10237314;23;20038;-60
2021/09/10 13:32:58;;;;;;;3.05;2.45;;;;;;;27.48;45.45;99946.72;10236301;28;20134;-59
2021/09/10 13:37:59;;;;;;;4.80;2.55;;;;;;;27.09;46.77;99936.31;10240566;28;20723;-60
2021/09/10 13:43:00;;;;;;;2.22;1.63;;;;;;;27.98;45.55;99934.25;10244042;28;21029;-61
2021/09/10 13:48:02;;;;;;;3.75;2.22;;;;;;;28.52;43.63;99942.00;10241915;28;20633;-62
2021/09/10 13:53:04;;;;;;;3.13;2.38;;;;;;;28.36;44.00;99940.94;10242295;28;20463;-62
2021/09/10 13:58:05;;;;;;;2.97;1.90;;;;;;;27.99;43.82;99935.94;10239262;28;20523;-61
2021/09/10 14:03:07;;;;;;;2.17;2.00;;;;;;;27.91;44.15;99937.13;10239135;28;20656;-62
2021/09/10 14:08:08;;;;;;;2.67;1.90;;;;;;;27.90;43.87;99934.66;10238234;28;20518;-61
2021/09/10 14:13:10;;;;;;;3.10;2.63;;;;;;;27.96;44.04;99933.66;10239917;28;20353;-60
2021/09/10 14:18:11;;;;;;;3.30;3.00;;;;;;;27.56;43.56;99945.50;10238474;28;20050;-61
2021/09/10 14:23:13;;;;;;;5.88;3.88;;;;;;;27.63;44.38;99940.72;10239504;28;20050;-62
2021/09/10 14:28:14;;;;;;;3.58;3.28;;;;;;;27.87;44.05;99933.22;10225440;28;20055;-62
2021/09/10 14:33:15;;;;;;;6.15;4.10;;;;;;;27.51;44.51;99930.63;10232548;28;20133;-60
2021/09/10 14:38:17;;;;;;;5.00;4.50;;;;;;;27.39;44.63;99929.84;10233986;28;20803;-62
2021/09/10 14:43:18;;;;;;;4.63;4.22;;;;;;;27.27;45.28;99923.56;10233962;28;20050;-64
2021/09/10 14:48:20;;;;;;;4.70;4.18;;;;;;;26.96;46.14;99928.38;10240600;28;20245;-60
2021/09/10 14:53:21;;;;;;;5.53;5.03;;;;;;;26.51;46.63;99931.69;10240704;28;20137;-60
2021/09/10 14:58:25;;;;;;;5.53;5.07;;;;;;;26.20;47.61;99928.25;10237152;28;20161;-60
2021/09/10 15:03:27;;;;;;;5.85;5.35;;;;;;;26.02;47.53;99927.25;10222007;28;20093;-60
2021/09/10 15:08:28;;;;;;;5.43;5.03;;;;;;;25.75;48.64;99927.59;10230973;28;20061;-60
2021/09/10 15:13:30;;;;;;;7.22;6.72;;;;;;;25.63;48.75;99945.81;10232094;28;20066;-60
2021/09/10 15:18:32;;;;;;;7.30;6.53;;;;;;;25.52;48.84;99943.84;10254813;28;20059;-60
2021/09/10 15:23:33;;;;;;;6.63;6.03;;;;;;;25.43;48.88;99947.97;10232743;28;20072;-59
2021/09/10 15:28:35;;;;;;;7.20;6.50;;;;;;;25.37;49.86;99942.38;10231183;28;20054;-63
2021/09/10 15:33:37;;;;;;;6.63;6.03;;;;;;;25.39;49.67;99948.41;10238681;28;20070;-62
2021/09/10 15:38:38;;;;;;;9.10;6.32;;;;;;;25.38;49.77;99943.19;10238131;28;20283;-61
2021/09/10 15:43:41;;;;;;;7.28;6.65;;;;;;;25.47;49.86;99943.72;10234276;28;20138;-66
2021/09/10 15:48:42;;;;;;;7.00;6.40;;;;;;;25.48;50.01;99945.41;10235095;28;20051;-60
2021/09/10 15:53:43;;;;;;;7.30;6.63;;;;;;;25.49;50.13;99949.75;10237248;28;20134;-61
2021/09/10 15:58:46;;;;;;;7.90;7.15;;;;;;;25.31;50.11;99954.19;10232149;28;20146;-60
2021/09/10 16:03:48;;;;;;;6.63;6.13;;;;;;;25.22;50.58;99958.22;10228639;28;20115;-61
2021/09/10 16:08:51;;;;;;;7.93;7.20;;;;;;;25.05;50.60;99947.94;10235125;28;20296;-62
2021/09/10 16:13:53;;;;;;;6.80;6.20;;;;;;;25.01;51.31;99948.63;10235187;28;20543;-60
2021/09/10 16:18:54;;;;;;;11.65;7.80;;;;;;;25.00;51.54;99941.53;10239156;28;20236;-61
2021/09/10 16:23:55;;;;;;;7.95;7.25;;;;;;;25.01;51.46;99944.03;10237813;28;20145;-62
2021/09/10 16:28:57;;;;;;;8.07;7.38;;;;;;;25.02;51.91;99962.00;10239117;28;20196;-62
2021/09/10 16:34:00;;;;;;;8.30;7.68;;;;;;;24.78;53.51;99974.59;10239643;28;20053;-60
2021/09/10 16:39:05;;;;;;;8.57;7.78;;;;;;;24.55;55.74;99986.09;10239107;28;20058;-60
2021/09/10 16:44:07;;;;;;;7.07;6.38;;;;;;;24.12;59.06;99992.25;10239370;28;20530;-61
2021/09/10 16:49:09;;;;;;;4.43;3.85;;;;;;;23.61;62.61;100000.22;10240384;28;20464;-60
2021/09/10 16:54:10;;;;;;;3.85;3.13;;;;;;;22.90;66.78;100004.56;10237947;28;20039;-60
2021/09/10 16:59:12;;;;;;;4.95;3.17;;;;;;;23.03;66.43;100008.28;10240839;28;20066;-61
2021/09/10 17:04:13;;;;;;;4.68;3.03;;;;;;;22.39;69.60;100011.44;10236173;28;20054;-61
2021/09/10 17:09:15;;;;;;;3.70;3.08;;;;;;;22.30;69.09;100019.97;10240627;28;20059;-60
2021/09/10 17:14:16;;;;;;;5.22;3.40;;;;;;;22.55;68.27;100033.81;10241014;28;20048;-60
2021/09/10 17:19:18;;;;;;;6.22;4.43;;;;;;;22.52;69.38;100036.91;10238178;28;20479;-55
2021/09/10 17:24:20;;;;;;;7.07;6.28;;;;;;;22.68;70.53;100049.25;10239473;28;20043;-54
2021/09/10 17:29:21;;;;;;;12.13;6.33;;;;;;;22.53;74.91;100050.28;10240683;28;20286;-53
2021/09/10 17:34:23;;;;;;;8.32;7.45;;;;;;;22.74;73.49;100040.25;10241586;28;20518;-55
2021/09/10 17:39:24;;;;;;;6.55;5.57;;;;;;;22.68;75.87;100027.53;10237877;28;20073;-54
2021/09/10 17:44:26;;;;;;;5.93;5.40;;;;;;;22.75;75.17;100028.38;10238550;28;20053;-54
2021/09/10 17:49:27;;;;;;;7.15;6.45;;;;;;;22.68;74.91;100022.94;10238615;28;20332;-64
2021/09/10 17:54:29;;;;;;;7.20;6.57;;;;;;;22.67;76.48;100026.72;10238190;28;20145;-61
2021/09/10 17:59:30;;;;;;;7.50;6.63;;;;;;;22.52;76.40;100034.19;10240068;28;20060;-61
2021/09/10 18:04:32;;;;;;;6.65;5.85;;;;;;;22.46;77.06;100025.03;10234093;28;20582;-61
2021/09/10 18:09:33;;;;;;;13.55;12.35;;;;;;;22.46;78.16;100040.44;10238272;28;20182;-61
2021/09/10 18:14:35;;;;;;;11.98;10.80;;;;;;;22.39;77.96;100033.16;10237614;28;20530;-60
2021/09/10 18:19:50;;;;;;;7.82;6.55;;;;;;;22.02;78.45;100040.75;10238249;28;20253;-60
2021/09/10 18:24:52;;;;;;;7.15;6.47;;;;;;;22.01;78.65;100049.09;10235094;28;20136;-63
2021/09/10 18:29:53;;;;;;;9.52;8.45;;;;;;;22.10;78.56;100064.13;10234176;28;20146;-60
2021/09/10 18:34:54;;;;;;;8.95;8.02;;;;;;;22.14;78.58;100056.41;10239117;28;20061;-55
2021/09/10 18:39:56;;;;;;;8.68;6.72;;;;;;;22.18;79.19;100068.53;10238845;28;20129;-53
2021/09/10 18:44:57;;;;;;;8.00;7.25;;;;;;;22.17;79.57;100070.41;10238974;28;20126;-54
2021/09/10 18:49:59;;;;;;;9.02;8.13;;;;;;;22.11;80.21;100073.91;10237428;28;20134;-53
2021/09/10 18:55:00;;;;;;;15.70;12.50;;;;;;;22.05;80.30;100077.44;10238187;28;20155;-53
2021/09/10 19:00:02;;;;;;;17.17;14.38;;;;;;;22.08;80.47;100085.16;10237585;28;20484;-54
2021/09/10 19:05:05;;;;;;;14.57;12.23;;;;;;;22.00;81.00;100090.78;10234405;28;21553;-52
2021/09/10 19:10:07;;;;;;;16.30;14.73;;;;;;;21.96;81.22;100101.16;10237494;28;20078;-53
2021/09/10 19:15:09;;;;;;;12.88;11.65;;;;;;;21.93;81.58;100106.16;10235420;28;20167;-53
2021/09/10 19:20:13;;;;;;;14.00;12.32;;;;;;;21.97;82.25;100104.72;10252951;28;20872;-52
2021/09/10 19:25:15;;;;;;;15.90;11.57;;;;;;;22.05;82.25;100115.38;10243444;28;20524;-54
2021/09/10 19:30:16;;;;;;;15.32;12.82;;;;;;;22.10;82.49;100122.91;10244373;28;20488;-54
2021/09/10 19:35:18;;;;;;;17.67;15.90;;;;;;;22.04;81.86;100113.75;10258247;28;20149;-52
2021/09/10 19:40:19;;;;;;;15.80;14.20;;;;;;;21.98;81.80;100119.94;10243941;28;20347;-54
2021/09/10 19:45:21;;;;;;;11.77;10.68;;;;;;;21.93;81.28;100117.84;10247198;28;20407;-54
2021/09/10 19:50:22;;;;;;;16.00;13.38;;;;;;;21.86;80.77;100144.09;10246117;28;20078;-56
2021/09/10 19:55:24;;;;;;;9.15;8.35;;;;;;;21.58;81.62;100152.25;10242861;28;20138;-53
2021/09/10 20:00:25;;;;;;;11.10;7.85;;;;;;;21.41;85.50;100157.06;10243839;28;20181;-52
2021/09/10 20:05:27;;;;;;;6.90;6.05;;;;;;;21.44;85.77;100130.47;10240149;28;20106;-57
2021/09/10 20:10:28;;;;;;;6.90;5.95;;;;;;;21.53;86.43;100133.88;10243440;28;20430;-49
2021/09/10 20:15:30;;;;;;;6.10;5.50;;;;;;;21.59;85.24;100132.22;10241541;28;20556;-53
2021/09/10 20:20:31;;;;;;;5.63;4.35;;;;;;;21.66;86.34;100138.53;10239540;28;20515;-55
2021/09/10 20:25:33;;;;;;;8.90;8.10;;;;;;;21.65;85.59;100137.72;10239082;28;20190;-53
2021/09/10 20:30:34;;;;;;;10.45;9.45;;;;;;;21.63;86.65;100122.69;10238703;28;20173;-55
2021/09/10 20:35:36;;;;;;;8.77;7.68;;;;;;;21.64;86.71;100129.78;10237164;28;20057;-57
2021/09/10 20:40:38;;;;;;;8.52;7.72;;;;;;;21.64;86.38;100127.91;10237943;28;20128;-56
2021/09/10 20:45:40;;;;;;;6.90;6.20;;;;;;;21.63;85.90;100136.22;10241673;28;20054;-50
2021/09/10 20:50:42;;;;;;;9.87;8.97;;;;;;;21.62;86.00;100131.84;10243537;28;20098;-53
2021/09/10 20:55:43;;;;;;;9.00;8.07;;;;;;;21.63;86.68;100133.50;10243470;28;20667;-51
2021/09/10 21:00:45;;;;;;;8.93;8.00;;;;;;;21.59;86.75;100143.06;10242596;28;20492;-61
2021/09/10 21:05:46;;;;;;;9.50;8.55;;;;;;;21.50;87.68;100140.53;10239465;28;20078;-51
2021/09/10 21:10:48;;;;;;;8.07;7.28;;;;;;;21.52;88.08;100148.44;10243686;28;20416;-54
2021/09/10 21:15:49;;;;;;;9.93;8.95;;;;;;;21.57;88.43;100147.84;10239774;28;20095;-52
2021/09/10 21:20:51;;;;;;;9.95;8.95;;;;;;;21.56;87.11;100151.59;10242202;28;20055;-52
2021/09/10 21:25:52;;;;;;;10.95;9.95;;;;;;;21.47;88.54;100153.59;10242068;28;20047;-60
2021/09/10 21:30:54;;;;;;;11.35;10.25;;;;;;;21.52;87.54;100157.41;10238757;28;20047;-54
2021/09/10 21:35:55;;;;;;;13.15;10.48;;;;;;;21.48;87.14;100166.94;10239214;28;20054;-60
2021/09/10 21:40:56;;;;;;;12.77;10.50;;;;;;;21.44;86.95;100165.66;10240487;28;20047;-54
2021/09/10 21:45:58;;;;;;;12.70;11.45;;;;;;;21.44;87.08;100160.25;10239789;28;20051;-56
2021/09/10 21:51:01;;;;;;;12.38;11.18;;;;;;;21.42;87.11;100162.28;10241790;28;20416;-51
2021/09/10 21:56:03;;;;;;;12.90;11.68;;;;;;;21.30;87.04;100158.47;10239484;28;20051;-53
2021/09/10 22:01:04;;;;;;;11.32;10.20;;;;;;;21.33;87.54;100160.75;10239970;28;20056;-56
2021/09/10 22:06:06;;;;;;;13.93;12.50;;;;;;;21.32;87.75;100159.13;10236643;28;20504;-59
2021/09/10 22:11:08;;;;;;;12.77;11.68;;;;;;;21.26;88.15;100158.03;10238680;28;20132;-50
2021/09/10 22:16:09;;;;;;;13.52;12.15;;;;;;;21.18;88.52;100160.84;10239363;28;20889;-60
2021/09/10 22:21:12;;;;;;;15.00;13.43;;;;;;;21.15;87.69;100170.22;10249696;28;20058;-60
2021/09/10 22:26:13;;;;;;;14.70;13.30;;;;;;;21.11;88.78;100173.50;10246964;28;20170;-60
2021/09/10 22:31:15;;;;;;;15.98;13.90;;;;;;;21.16;87.88;100174.59;10245065;28;20126;-58
2021/09/10 22:36:16;;;;;;;13.93;12.52;;;;;;;21.04;88.20;100181.56;10252331;28;20516;-59
2021/09/10 22:41:18;;;;;;;13.38;12.05;;;;;;;21.00;88.94;100183.81;10252795;28;20113;-60
2021/09/10 22:46:19;;;;;;;12.23;11.02;;;;;;;21.02;89.66;100176.34;10250904;28;20193;-61
2021/09/10 22:51:21;;;;;;;13.85;11.85;;;;;;;20.95;88.39;100180.84;10245896;28;20051;-60
2021/09/10 22:56:22;;;;;;;13.02;11.68;;;;;;;21.06;88.01;100187.59;10256334;28;20050;-60
2021/09/10 23:01:23;;;;;;;13.98;12.60;;;;;;;20.93;87.83;100176.69;10258715;28;20228;-61
2021/09/10 23:06:25;;;;;;;12.20;11.02;;;;;;;20.84;86.97;100179.50;10271108;28;20110;-60
2021/09/10 23:11:27;;;;;;;11.23;10.23;;;;;;;20.82;87.04;100184.28;10259432;28;20054;-62
2021/09/10 23:16:29;;;;;;;11.45;9.65;;;;;;;20.79;86.22;100181.97;10270214;28;20658;-60